Time;durP1;ratioP1;P1;durP2;ratioP2;P2;SDS_P1;SDS_P2;PMS_P1;PMS_P2;Temp;Humidity;BMP_temperature;BMP_pressure;BME280_temperature;BME280_humidity;BME280_pressure;Samples;Min_cycle;Max_cycle;Signal;HPM_P1;HPM_P2
2023/03/22 06:57:36;;;;;;;24.27;11.55;;;;;;;;;;5068017;28;20889;-66
2023/03/22 07:00:04;;;;;;;23.40;12.60;;;;;;;;;;5067823;28;20057;-65
2023/03/22 07:02:30;;;;;;;20.08;11.68;;;;;;;;;;5068095;28;20033;-72
2023/03/22 07:04:56;;;;;;;20.83;12.18;;;;;;;;;;5068326;28;20439;-71
2023/03/22 07:07:22;;;;;;;20.65;12.50;;;;;;;;;;5067961;28;20029;-67
2023/03/22 07:09:48;;;;;;;21.25;11.68;;;;;;;;;;5067941;28;20028;-67
2023/03/22 07:12:15;;;;;;;23.10;11.68;;;;;;;;;;5067702;28;20025;-66
2023/03/22 07:14:41;;;;;;;21.33;12.05;;;;;;;;;;5067810;28;20024;-64
2023/03/22 07:17:07;;;;;;;27.45;12.23;;;;;;;;;;5067727;28;20040;-66
2023/03/22 07:19:33;;;;;;;21.13;11.73;;;;;;;;;;5067789;28;20029;-68
2023/03/22 07:21:59;;;;;;;21.50;11.90;;;;;;;;;;5067575;28;20029;-69
2023/03/22 07:24:25;;;;;;;19.08;11.35;;;;;;;;;;5066817;28;20033;-68
2023/03/22 07:26:51;;;;;;;21.70;10.88;;;;;;;;;;5067053;28;20035;-68
2023/03/22 07:29:17;;;;;;;19.25;10.93;;;;;;;;;;5067648;28;20021;-77
2023/03/22 07:31:44;;;;;;;16.65;11.18;;;;;;;;;;5067443;28;20112;-66
2023/03/22 07:34:10;;;;;;;15.32;10.50;;;;;;;;;;5067493;28;20532;-67
2023/03/22 07:36:37;;;;;;;20.20;11.70;;;;;;;;;;5066567;28;20407;-73
2023/03/22 07:39:04;;;;;;;19.70;11.75;;;;;;;;;;5067160;28;20495;-73
2023/03/22 07:41:30;;;;;;;16.42;10.45;;;;;;;;;;5067708;28;20047;-68
2023/03/22 07:43:56;;;;;;;18.75;10.15;;;;;;;;;;5067285;28;20031;-67
2023/03/22 07:46:22;;;;;;;18.00;10.18;;;;;;;;;;5067246;28;20480;-69
2023/03/22 07:48:49;;;;;;;17.48;10.68;;;;;;;;;;5066148;28;20131;-67
2023/03/22 07:51:15;;;;;;;16.77;10.88;;;;;;;;;;5067063;28;20110;-67
2023/03/22 07:53:41;;;;;;;18.35;10.68;;;;;;;;;;5067089;28;20083;-67
2023/03/22 07:56:08;;;;;;;20.80;10.88;;;;;;;;;;5058065;28;20137;-67
2023/03/22 07:58:35;;;;;;;20.27;10.75;;;;;;;;;;5047157;28;20025;-67
2023/03/22 08:01:07;;;;;;;19.45;12.13;;;;;;;;;;5046894;28;20063;-67
2023/03/22 08:03:34;;;;;;;19.42;12.02;;;;;;;;;;5046534;28;20037;-67
2023/03/22 08:06:03;;;;;;;18.80;11.35;;;;;;;;;;5046645;28;20026;-67
2023/03/22 08:08:29;;;;;;;19.35;11.27;;;;;;;;;;5035629;28;20491;-71
2023/03/22 08:10:55;;;;;;;18.33;11.13;;;;;;;;;;5033684;28;20029;-66
2023/03/22 08:13:21;;;;;;;16.48;11.07;;;;;;;;;;5033601;28;20045;-66
2023/03/22 08:15:47;;;;;;;21.70;11.27;;;;;;;;;;5033375;28;20116;-65
2023/03/22 08:18:13;;;;;;;17.08;10.88;;;;;;;;;;5033665;28;20583;-70
2023/03/22 08:20:39;;;;;;;19.17;10.75;;;;;;;;;;5033387;28;20116;-66
2023/03/22 08:23:06;;;;;;;17.65;10.98;;;;;;;;;;5033484;28;20539;-67
2023/03/22 08:25:32;;;;;;;18.75;10.98;;;;;;;;;;5033594;28;20040;-72
2023/03/22 08:27:59;;;;;;;15.88;11.27;;;;;;;;;;5033501;28;20038;-67
2023/03/22 08:30:25;;;;;;;19.40;11.85;;;;;;;;;;5032667;28;20029;-66
2023/03/22 08:32:51;;;;;;;19.42;11.43;;;;;;;;;;5033360;28;20036;-67
2023/03/22 08:35:17;;;;;;;19.17;12.45;;;;;;;;;;5032810;28;20401;-67
2023/03/22 08:37:43;;;;;;;19.98;12.10;;;;;;;;;;5033118;28;20354;-66
2023/03/22 08:40:10;;;;;;;18.55;12.90;;;;;;;;;;5032938;28;20678;-72
2023/03/22 08:42:36;;;;;;;22.17;14.20;;;;;;;;;;5032808;28;20061;-68
2023/03/22 08:45:02;;;;;;;20.38;13.50;;;;;;;;;;5032837;28;20171;-70
2023/03/22 08:47:28;;;;;;;18.65;12.98;;;;;;;;;;5032954;28;20025;-66
2023/03/22 08:49:54;;;;;;;24.08;13.35;;;;;;;;;;5032627;28;20112;-67
2023/03/22 08:52:20;;;;;;;22.85;13.95;;;;;;;;;;5032819;28;20045;-66
2023/03/22 08:54:47;;;;;;;20.50;13.70;;;;;;;;;;5032644;28;20465;-66
2023/03/22 08:57:13;;;;;;;26.67;15.05;;;;;;;;;;5032317;28;20061;-66
2023/03/22 08:59:40;;;;;;;45.70;27.85;;;;;;;;;;5032649;28;20025;-66
2023/03/22 09:02:06;;;;;;;24.88;16.42;;;;;;;;;;5032190;28;20025;-65
2023/03/22 09:04:32;;;;;;;27.98;17.20;;;;;;;;;;5032281;28;20022;-73
2023/03/22 09:06:58;;;;;;;21.45;15.05;;;;;;;;;;5032736;28;20436;-67
2023/03/22 09:09:24;;;;;;;23.58;14.23;;;;;;;;;;5032357;28;20032;-66
2023/03/22 09:11:50;;;;;;;20.13;14.82;;;;;;;;;;5032267;28;20080;-65
2023/03/22 09:14:16;;;;;;;25.15;14.20;;;;;;;;;;5032187;28;20095;-73
2023/03/22 09:16:42;;;;;;;23.52;14.52;;;;;;;;;;5032001;28;20451;-67
2023/03/22 09:19:09;;;;;;;25.85;15.55;;;;;;;;;;5031067;28;20030;-67
2023/03/22 09:21:35;;;;;;;21.60;13.98;;;;;;;;;;5032313;28;20037;-67
2023/03/22 09:24:01;;;;;;;22.75;15.02;;;;;;;;;;5032477;28;20025;-68
2023/03/22 09:26:27;;;;;;;22.88;14.35;;;;;;;;;;5031637;28;20037;-66
2023/03/22 09:28:53;;;;;;;20.63;13.73;;;;;;;;;;5031482;28;20388;-66
2023/03/22 09:31:19;;;;;;;24.80;14.57;;;;;;;;;;5031650;28;20412;-67
2023/03/22 09:33:45;;;;;;;22.42;14.60;;;;;;;;;;5031910;28;20493;-67
2023/03/22 09:36:12;;;;;;;23.27;14.82;;;;;;;;;;5031939;28;20034;-67
2023/03/22 09:38:39;;;;;;;20.80;14.35;;;;;;;;;;5031946;28;20096;-72
2023/03/22 09:41:07;;;;;;;24.35;14.68;;;;;;;;;;5031530;28;20021;-71
2023/03/22 09:43:36;;;;;;;26.85;14.30;;;;;;;;;;5031749;28;20029;-70
2023/03/22 09:46:04;;;;;;;21.98;13.48;;;;;;;;;;5028266;28;20043;-68
2023/03/22 09:48:32;;;;;;;23.17;14.80;;;;;;;;;;5030564;28;20026;-71
2023/03/22 09:50:59;;;;;;;21.63;13.98;;;;;;;;;;5019779;28;20048;-75
2023/03/22 09:53:27;;;;;;;18.98;13.63;;;;;;;;;;5012599;28;20030;-69
2023/03/22 09:56:01;;;;;;;23.08;14.27;;;;;;;;;;5019883;28;20053;-68
2023/03/22 09:58:32;;;;;;;24.25;15.32;;;;;;;;;;5028765;28;20087;-68
2023/03/22 10:01:00;;;;;;;22.67;14.55;;;;;;;;;;5030322;28;20052;-67
2023/03/22 10:03:38;;;;;;;20.88;13.60;;;;;;;;;;5031659;28;20036;-68
2023/03/22 10:06:09;;;;;;;21.55;14.13;;;;;;;;;;5031497;28;20049;-67
2023/03/22 10:08:54;;;;;;;22.35;13.15;;;;;;;;;;5031600;28;20028;-76
2023/03/22 10:11:23;;;;;;;20.13;13.15;;;;;;;;;;5031377;28;20164;-74
2023/03/22 10:14:22;;;;;;;18.17;13.43;;;;;;;;;;5031386;28;20052;-74
2023/03/22 10:16:49;;;;;;;22.02;13.18;;;;;;;;;;4989301;28;20079;-74
2023/03/22 10:19:34;;;;;;;20.77;14.35;;;;;;;;;;4989741;28;20054;-66
2023/03/22 10:22:01;;;;;;;21.33;14.45;;;;;;;;;;4989708;28;20131;-67
2023/03/22 10:24:35;;;;;;;21.08;13.60;;;;;;;;;;4987994;28;20453;-68
2023/03/22 10:27:01;;;;;;;25.30;13.60;;;;;;;;;;4989100;28;20050;-68
2023/03/22 10:29:34;;;;;;;23.67;13.07;;;;;;;;;;4988735;28;20791;-68
2023/03/22 10:32:20;;;;;;;18.10;13.52;;;;;;;;;;4988528;28;20026;-68
2023/03/22 10:34:46;;;;;;;17.48;12.10;;;;;;;;;;4985995;28;20140;-68
2023/03/22 10:37:24;;;;;;;16.98;11.98;;;;;;;;;;4981753;28;20068;-67
2023/03/22 10:39:57;;;;;;;19.08;11.43;;;;;;;;;;4986596;28;20042;-67
2023/03/22 10:42:25;;;;;;;17.80;11.65;;;;;;;;;;4988653;28;20081;-69
2023/03/22 10:44:55;;;;;;;16.30;11.00;;;;;;;;;;4987830;28;20027;-68
2023/03/22 10:47:31;;;;;;;16.33;11.23;;;;;;;;;;4987570;28;20033;-66
2023/03/22 10:49:58;;;;;;;17.40;11.02;;;;;;;;;;4969593;28;20073;-66
2023/03/22 10:52:27;;;;;;;29.67;11.18;;;;;;;;;;4992415;28;20402;-65
2023/03/22 10:54:54;;;;;;;17.90;10.02;;;;;;;;;;5028750;28;20025;-68
2023/03/22 10:57:20;;;;;;;19.48;11.63;;;;;;;;;;5028852;28;20057;-66
2023/03/22 10:59:51;;;;;;;14.73;10.90;;;;;;;;;;5030146;28;20121;-71
2023/03/22 11:02:25;;;;;;;14.70;10.60;;;;;;;;;;5030663;28;20029;-67
2023/03/22 11:04:56;;;;;;;15.88;11.10;;;;;;;;;;5030931;28;20018;-76
2023/03/22 11:07:33;;;;;;;13.45;9.73;;;;;;;;;;5018977;28;20034;-81
2023/03/22 11:10:08;;;;;;;16.27;10.80;;;;;;;;;;5013501;28;20029;-75
2023/03/22 11:12:35;;;;;;;13.90;9.10;;;;;;;;;;5024894;28;20108;-82
2023/03/22 11:15:02;;;;;;;12.48;8.77;;;;;;;;;;5030808;28;20056;-82
2023/03/22 11:17:28;;;;;;;12.20;8.75;;;;;;;;;;5029156;28;20147;-68
2023/03/22 11:19:59;;;;;;;14.73;9.02;;;;;;;;;;5029772;28;20022;-70
2023/03/22 11:22:36;;;;;;;15.00;10.07;;;;;;;;;;5029408;28;20036;-71
2023/03/22 11:25:02;;;;;;;12.05;8.70;;;;;;;;;;5025395;28;20084;-71
2023/03/22 11:27:31;;;;;;;13.80;8.32;;;;;;;;;;5030267;28;20029;-67
2023/03/22 11:29:59;;;;;;;11.00;6.65;;;;;;;;;;5030181;28;20018;-73
2023/03/22 11:32:25;;;;;;;15.15;7.97;;;;;;;;;;5030029;28;20030;-66
2023/03/22 11:35:11;;;;;;;14.80;8.52;;;;;;;;;;5030546;28;20530;-74
2023/03/22 11:37:45;;;;;;;13.57;7.53;;;;;;;;;;5030157;28;20026;-67
2023/03/22 11:40:23;;;;;;;9.68;6.63;;;;;;;;;;5030203;28;20033;-68
2023/03/22 11:42:52;;;;;;;8.90;6.45;;;;;;;;;;5031318;28;20033;-67
2023/03/22 11:45:23;;;;;;;9.32;6.40;;;;;;;;;;5033720;28;20504;-68
2023/03/22 11:47:49;;;;;;;7.38;4.65;;;;;;;;;;5033792;28;20033;-68
2023/03/22 11:50:35;;;;;;;8.77;5.28;;;;;;;;;;5033866;28;20033;-80
2023/03/22 11:53:03;;;;;;;8.73;5.60;;;;;;;;;;5033495;28;20362;-68
2023/03/22 11:55:30;;;;;;;9.02;6.00;;;;;;;;;;5033585;28;20136;-67
2023/03/22 11:57:57;;;;;;;8.40;6.15;;;;;;;;;;5033545;28;20485;-68
2023/03/22 12:00:27;;;;;;;8.75;6.13;;;;;;;;;;5033489;28;20034;-68
2023/03/22 12:02:55;;;;;;;14.48;6.75;;;;;;;;;;5033350;28;20404;-81
2023/03/22 12:05:24;;;;;;;8.13;5.82;;;;;;;;;;5033690;28;20037;-67
2023/03/22 12:08:19;;;;;;;7.78;5.43;;;;;;;;;;5033417;28;20033;-66
2023/03/22 12:10:48;;;;;;;8.40;5.53;;;;;;;;;;5011481;28;20088;-66
2023/03/22 12:13:14;;;;;;;8.90;5.82;;;;;;;;;;5011253;28;20139;-68
2023/03/22 12:15:47;;;;;;;10.45;5.68;;;;;;;;;;5011001;28;20077;-74
2023/03/22 12:18:13;;;;;;;9.63;5.82;;;;;;;;;;5010658;28;20077;-74
2023/03/22 12:20:39;;;;;;;8.10;5.95;;;;;;;;;;5010836;28;20549;-70
2023/03/22 12:23:15;;;;;;;9.18;5.75;;;;;;;;;;5011313;28;20032;-69
2023/03/22 12:25:44;;;;;;;10.90;5.72;;;;;;;;;;5011389;28;20042;-69
2023/03/22 12:28:15;;;;;;;8.63;4.80;;;;;;;;;;5011405;28;20041;-69
2023/03/22 12:30:46;;;;;;;7.22;4.63;;;;;;;;;;5011130;28;20030;-69
2023/03/22 12:33:24;;;;;;;8.40;4.97;;;;;;;;;;5011252;28;20104;-68
2023/03/22 12:35:52;;;;;;;6.82;4.63;;;;;;;;;;5010758;28;20046;-68
2023/03/22 12:38:32;;;;;;;6.65;4.40;;;;;;;;;;5010745;28;20038;-69
2023/03/22 12:41:01;;;;;;;7.90;5.05;;;;;;;;;;5008681;28;20038;-68
2023/03/22 12:43:30;;;;;;;6.53;4.30;;;;;;;;;;5011127;28;20092;-68
2023/03/22 12:45:58;;;;;;;5.53;4.35;;;;;;;;;;5010276;28;20521;-71
2023/03/22 12:48:45;;;;;;;6.40;4.70;;;;;;;;;;5032966;28;20508;-70
2023/03/22 12:51:12;;;;;;;6.30;4.30;;;;;;;;;;5032828;28;20725;-68
2023/03/22 12:53:41;;;;;;;12.52;5.18;;;;;;;;;;5032668;28;20079;-69
2023/03/22 12:56:17;;;;;;;12.10;6.47;;;;;;;;;;5031802;28;20060;-68
2023/03/22 12:58:47;;;;;;;7.35;5.45;;;;;;;;;;5031468;28;20684;-70
2023/03/22 13:01:22;;;;;;;10.50;6.65;;;;;;;;;;5032152;28;20029;-70
2023/03/22 13:03:51;;;;;;;6.25;4.70;;;;;;;;;;5032649;28;20026;-68
2023/03/22 13:06:29;;;;;;;7.82;4.43;;;;;;;;;;5032530;28;20538;-74
2023/03/22 13:09:14;;;;;;;10.40;4.55;;;;;;;;;;5032641;28;20448;-68
2023/03/22 13:11:40;;;;;;;8.27;4.70;;;;;;;;;;5032538;28;20017;-69
2023/03/22 13:14:06;;;;;;;6.07;4.53;;;;;;;;;;5032339;28;20025;-67
2023/03/22 13:16:46;;;;;;;7.93;4.50;;;;;;;;;;5032396;28;20489;-68
2023/03/22 13:19:28;;;;;;;8.13;4.80;;;;;;;;;;5032300;28;20539;-69
2023/03/22 13:22:14;;;;;;;8.07;5.43;;;;;;;;;;5032381;28;20033;-70
2023/03/22 13:24:58;;;;;;;8.07;5.25;;;;;;;;;;5032417;28;20064;-70
2023/03/22 13:27:34;;;;;;;8.55;5.10;;;;;;;;;;5032191;28;20393;-70
2023/03/22 13:30:03;;;;;;;8.70;5.03;;;;;;;;;;5031952;28;20033;-70
2023/03/22 13:32:32;;;;;;;7.20;5.18;;;;;;;;;;5032155;28;20441;-71
2023/03/22 13:34:59;;;;;;;8.68;5.47;;;;;;;;;;5032152;28;20101;-69
2023/03/22 13:37:36;;;;;;;8.30;5.10;;;;;;;;;;5031875;28;20489;-73
2023/03/22 13:40:11;;;;;;;7.38;4.80;;;;;;;;;;5032031;28;20076;-76
2023/03/22 13:42:40;;;;;;;9.88;5.00;;;;;;;;;;5032157;28;20037;-70
2023/03/22 13:45:30;;;;;;;6.50;4.40;;;;;;;;;;5031923;28;20508;-70
2023/03/22 13:48:22;;;;;;;7.68;4.70;;;;;;;;;;5031692;28;20025;-70
2023/03/22 13:50:48;;;;;;;7.55;4.30;;;;;;;;;;5030011;28;20465;-69
2023/03/22 13:53:20;;;;;;;5.72;4.32;;;;;;;;;;5031613;28;20110;-70
2023/03/22 13:55:46;;;;;;;5.70;3.95;;;;;;;;;;5031612;28;20563;-65
2023/03/22 13:58:34;;;;;;;11.70;4.93;;;;;;;;;;5031522;28;20068;-70
2023/03/22 14:01:02;;;;;;;7.72;4.45;;;;;;;;;;5031739;28;20026;-72
2023/03/22 14:03:31;;;;;;;6.53;4.35;;;;;;;;;;5031514;28;20026;-70
2023/03/22 14:06:03;;;;;;;6.53;4.53;;;;;;;;;;5031048;28;20029;-70
2023/03/22 14:08:29;;;;;;;8.18;4.50;;;;;;;;;;5031121;28;20132;-70
2023/03/22 14:11:02;;;;;;;8.60;4.55;;;;;;;;;;5031245;28;20022;-71
2023/03/22 14:13:37;;;;;;;6.80;4.70;;;;;;;;;;5031184;28;20048;-75
2023/03/22 14:16:22;;;;;;;12.00;7.22;;;;;;;;;;5031182;28;20124;-70
2023/03/22 14:18:49;;;;;;;6.93;4.88;;;;;;;;;;5029423;28;20033;-70
2023/03/22 14:21:17;;;;;;;13.25;5.55;;;;;;;;;;5030138;28;20112;-71
2023/03/22 14:23:46;;;;;;;8.68;4.72;;;;;;;;;;5030784;28;20026;-75
2023/03/22 14:26:23;;;;;;;6.35;4.35;;;;;;;;;;5030663;28;20056;-76
2023/03/22 14:28:52;;;;;;;7.00;4.78;;;;;;;;;;5031038;28;20146;-68
2023/03/22 14:31:21;;;;;;;7.80;4.32;;;;;;;;;;5030998;28;20392;-77
2023/03/22 14:33:47;;;;;;;8.02;4.80;;;;;;;;;;5030530;28;20041;-75
2023/03/22 14:36:15;;;;;;;9.30;4.28;;;;;;;;;;5030690;28;20084;-74
2023/03/22 14:38:42;;;;;;;5.07;3.85;;;;;;;;;;5031063;28;20079;-75
2023/03/22 14:41:11;;;;;;;7.63;4.18;;;;;;;;;;5030565;28;20551;-72
2023/03/22 14:43:39;;;;;;;5.95;3.80;;;;;;;;;;5030845;28;20162;-71
2023/03/22 14:46:10;;;;;;;5.40;3.70;;;;;;;;;;5030964;28;20410;-73
2023/03/22 14:48:38;;;;;;;5.95;4.88;;;;;;;;;;5030000;28;20055;-73
2023/03/22 14:51:07;;;;;;;9.90;6.82;;;;;;;;;;5030666;28;20445;-74
2023/03/22 14:53:37;;;;;;;7.43;5.00;;;;;;;;;;5030924;28;20021;-76
2023/03/22 14:56:27;;;;;;;7.32;4.90;;;;;;;;;;5030560;28;20103;-84
2023/03/22 14:58:54;;;;;;;8.68;4.72;;;;;;;;;;5030740;28;20513;-74
2023/03/22 15:01:25;;;;;;;6.65;4.40;;;;;;;;;;5030706;28;20030;-81
2023/03/22 15:03:56;;;;;;;6.32;4.38;;;;;;;;;;5030716;28;20029;-79
2023/03/22 15:06:22;;;;;;;10.30;4.93;;;;;;;;;;5029376;28;20024;-75
2023/03/22 15:08:48;;;;;;;10.25;5.25;;;;;;;;;;5030794;28;20057;-78
2023/03/22 15:11:16;;;;;;;6.95;4.03;;;;;;;;;;5032868;28;20193;-79
2023/03/22 15:13:43;;;;;;;6.30;3.60;;;;;;;;;;5031676;28;20025;-74
2023/03/22 15:16:12;;;;;;;7.68;3.80;;;;;;;;;;5030740;28;20038;-74
2023/03/22 15:18:38;;;;;;;4.70;3.72;;;;;;;;;;5032737;28;20032;-71
2023/03/22 15:21:05;;;;;;;8.02;3.85;;;;;;;;;;5034988;28;20120;-67
2023/03/22 15:23:39;;;;;;;4.85;3.60;;;;;;;;;;5034688;28;20068;-68
2023/03/22 15:26:06;;;;;;;6.63;4.20;;;;;;;;;;5034050;28;20091;-69
2023/03/22 15:28:37;;;;;;;5.13;3.60;;;;;;;;;;5034081;28;20029;-66
2023/03/22 15:31:03;;;;;;;6.40;3.80;;;;;;;;;;5034267;28;20080;-71
2023/03/22 15:33:47;;;;;;;4.30;3.45;;;;;;;;;;5033290;28;20041;-75
2023/03/22 15:36:17;;;;;;;5.00;3.92;;;;;;;;;;5032368;28;20435;-70
2023/03/22 15:38:44;;;;;;;4.55;3.47;;;;;;;;;;5029764;28;20021;-70
2023/03/22 15:41:46;;;;;;;7.00;4.40;;;;;;;;;;5033174;28;20040;-71
2023/03/22 15:44:24;;;;;;;8.32;5.10;;;;;;;;;;4991547;28;20038;-72
2023/03/22 15:46:57;;;;;;;8.50;4.13;;;;;;;;;;4989910;28;20089;-70
2023/03/22 15:49:37;;;;;;;5.55;3.67;;;;;;;;;;4991117;28;20031;-76
2023/03/22 15:52:11;;;;;;;7.40;3.40;;;;;;;;;;4992018;28;20034;-66
2023/03/22 15:54:42;;;;;;;4.38;3.28;;;;;;;;;;4990410;28;20053;-67
2023/03/22 15:57:24;;;;;;;6.93;4.20;;;;;;;;;;4991305;28;20146;-68
2023/03/22 15:59:55;;;;;;;6.63;3.95;;;;;;;;;;4991825;28;20089;-65
2023/03/22 16:02:32;;;;;;;7.57;4.22;;;;;;;;;;4991852;28;20035;-70
2023/03/22 16:04:59;;;;;;;15.77;10.85;;;;;;;;;;4991647;28;20048;-63
2023/03/22 16:07:26;;;;;;;7.47;5.05;;;;;;;;;;4991445;28;20533;-66
2023/03/22 16:09:53;;;;;;;15.68;9.25;;;;;;;;;;4990460;28;20023;-67
2023/03/22 16:12:20;;;;;;;9.73;5.07;;;;;;;;;;4991072;28;20034;-66
2023/03/22 16:14:47;;;;;;;22.88;13.40;;;;;;;;;;4990142;28;20038;-65
2023/03/22 16:17:17;;;;;;;5.82;3.60;;;;;;;;;;4995776;28;20077;-63
2023/03/22 16:19:43;;;;;;;6.35;4.30;;;;;;;;;;5033106;28;20018;-66
2023/03/22 16:22:13;;;;;;;11.63;7.18;;;;;;;;;;5033216;28;20017;-65
2023/03/22 16:24:40;;;;;;;8.68;4.10;;;;;;;;;;5033164;28;20068;-65
2023/03/22 16:27:14;;;;;;;12.88;6.93;;;;;;;;;;5033086;28;20203;-68
2023/03/22 16:29:40;;;;;;;17.55;10.60;;;;;;;;;;5032769;28;20044;-66
2023/03/22 16:32:10;;;;;;;13.73;6.95;;;;;;;;;;5032537;28;20017;-64
2023/03/22 16:34:36;;;;;;;14.70;8.77;;;;;;;;;;5032425;28;20095;-65
2023/03/22 16:37:05;;;;;;;13.57;7.63;;;;;;;;;;5031171;28;20041;-70
2023/03/22 16:39:31;;;;;;;10.43;6.55;;;;;;;;;;5026825;28;20544;-63
2023/03/22 16:41:57;;;;;;;8.70;5.20;;;;;;;;;;5032010;28;20033;-64
2023/03/22 16:44:23;;;;;;;11.82;5.97;;;;;;;;;;5033075;28;20036;-63
2023/03/22 16:46:49;;;;;;;12.50;6.60;;;;;;;;;;5032876;28;20025;-66
2023/03/22 16:49:15;;;;;;;16.95;7.72;;;;;;;;;;5032607;28;20028;-65
2023/03/22 16:51:41;;;;;;;9.00;6.32;;;;;;;;;;5032834;28;20033;-70
2023/03/22 16:54:08;;;;;;;11.13;6.80;;;;;;;;;;5032375;28;20029;-60
2023/03/22 16:56:34;;;;;;;12.70;8.00;;;;;;;;;;5031072;28;20459;-62
2023/03/22 16:59:00;;;;;;;11.50;7.15;;;;;;;;;;5024782;28;20100;-62
2023/03/22 17:01:26;;;;;;;12.07;8.13;;;;;;;;;;5027182;28;20540;-65
2023/03/22 17:03:52;;;;;;;13.45;7.53;;;;;;;;;;5032348;28;20053;-68
2023/03/22 17:06:22;;;;;;;14.75;10.25;;;;;;;;;;5032611;28;20135;-65
2023/03/22 17:08:48;;;;;;;14.95;8.13;;;;;;;;;;5032438;28;20025;-64
2023/03/22 17:11:19;;;;;;;15.25;8.10;;;;;;;;;;5032402;28;20029;-64
2023/03/22 17:13:45;;;;;;;15.15;7.78;;;;;;;;;;5032425;28;20025;-64
2023/03/22 17:16:11;;;;;;;13.63;7.43;;;;;;;;;;5023784;28;20073;-64
2023/03/22 17:18:37;;;;;;;17.73;8.10;;;;;;;;;;5011935;28;20060;-64
2023/03/22 17:21:03;;;;;;;15.93;7.70;;;;;;;;;;5012376;28;20026;-68
2023/03/22 17:23:30;;;;;;;20.40;10.35;;;;;;;;;;5011780;28;20028;-63
2023/03/22 17:25:56;;;;;;;31.60;16.40;;;;;;;;;;5012081;28;20045;-65
2023/03/22 17:28:24;;;;;;;28.27;14.77;;;;;;;;;;5012107;28;20056;-64
2023/03/22 17:30:50;;;;;;;30.90;17.27;;;;;;;;;;5020652;28;20026;-67
2023/03/22 17:33:17;;;;;;;32.00;16.83;;;;;;;;;;5031987;28;20773;-65
2023/03/22 17:35:43;;;;;;;27.48;15.73;;;;;;;;;;5031840;28;20068;-64
2023/03/22 17:38:09;;;;;;;33.53;16.50;;;;;;;;;;5031936;28;20022;-65
2023/03/22 17:40:36;;;;;;;32.88;19.02;;;;;;;;;;5030764;28;20033;-64
2023/03/22 17:43:03;;;;;;;36.83;21.30;;;;;;;;;;5031454;28;20037;-63
2023/03/22 17:45:33;;;;;;;40.13;22.17;;;;;;;;;;5031654;28;20028;-68
2023/03/22 17:48:02;;;;;;;39.22;21.00;;;;;;;;;;5031661;28;20017;-65
2023/03/22 17:50:30;;;;;;;39.35;21.45;;;;;;;;;;5031307;28;20028;-65
2023/03/22 17:52:57;;;;;;;45.05;23.33;;;;;;;;;;5031470;28;20026;-67
2023/03/22 17:55:24;;;;;;;41.20;22.38;;;;;;;;;;5031281;28;20033;-65
2023/03/22 17:57:51;;;;;;;52.50;27.92;;;;;;;;;;5031344;28;20453;-65
2023/03/22 18:00:18;;;;;;;55.30;29.75;;;;;;;;;;5031748;28;20121;-66
2023/03/22 18:02:44;;;;;;;61.55;33.88;;;;;;;;;;5026712;28;20092;-64
2023/03/22 18:05:12;;;;;;;46.90;26.73;;;;;;;;;;5027600;28;20083;-64
2023/03/22 18:07:38;;;;;;;55.05;30.08;;;;;;;;;;5031113;28;20079;-65
2023/03/22 18:10:06;;;;;;;49.00;27.92;;;;;;;;;;5030575;28;20029;-63
2023/03/22 18:12:33;;;;;;;44.55;26.02;;;;;;;;;;5031131;28;20017;-64
2023/03/22 18:15:00;;;;;;;47.03;26.95;;;;;;;;;;5030967;28;20022;-64
2023/03/22 18:17:26;;;;;;;45.75;24.30;;;;;;;;;;5030980;28;20082;-68
2023/03/22 18:19:52;;;;;;;53.67;28.30;;;;;;;;;;5030957;28;20068;-69
2023/03/22 18:22:18;;;;;;;55.97;32.13;;;;;;;;;;5031285;28;20029;-64
2023/03/22 18:24:44;;;;;;;59.08;33.83;;;;;;;;;;5030300;28;20366;-64
2023/03/22 18:27:10;;;;;;;61.55;33.10;;;;;;;;;;5030655;28;20030;-64
2023/03/22 18:29:36;;;;;;;57.45;33.00;;;;;;;;;;5031012;28;20018;-71
2023/03/22 18:32:02;;;;;;;59.55;34.33;;;;;;;;;;5024609;28;20030;-65
2023/03/22 18:34:28;;;;;;;62.33;33.08;;;;;;;;;;5029564;28;20060;-67
2023/03/22 18:36:57;;;;;;;62.53;33.45;;;;;;;;;;5030771;28;20092;-63
2023/03/22 18:39:23;;;;;;;64.80;37.42;;;;;;;;;;5030349;28;20029;-67
2023/03/22 18:41:49;;;;;;;69.13;39.75;;;;;;;;;;5028268;28;20061;-64
2023/03/22 18:44:19;;;;;;;68.00;38.92;;;;;;;;;;5028549;28;20025;-64
2023/03/22 18:46:45;;;;;;;73.68;40.70;;;;;;;;;;5028314;28;20033;-64
2023/03/22 18:49:11;;;;;;;74.22;39.50;;;;;;;;;;5028893;28;20030;-64
2023/03/22 18:51:38;;;;;;;77.72;40.88;;;;;;;;;;5028288;28;20079;-64
2023/03/22 18:54:04;;;;;;;87.38;42.33;;;;;;;;;;5028136;28;20021;-71
2023/03/22 18:56:32;;;;;;;78.85;41.88;;;;;;;;;;5027319;28;20045;-64
2023/03/22 18:58:58;;;;;;;76.35;40.70;;;;;;;;;;5024904;28;20092;-65
2023/03/22 19:01:25;;;;;;;84.75;40.58;;;;;;;;;;5029159;28;20104;-64
2023/03/22 19:03:51;;;;;;;79.38;40.05;;;;;;;;;;5030417;28;20114;-64
2023/03/22 19:06:17;;;;;;;72.60;40.42;;;;;;;;;;5029096;28;20038;-65
2023/03/22 19:08:44;;;;;;;68.45;39.70;;;;;;;;;;5029468;28;20034;-64
2023/03/22 19:11:11;;;;;;;72.38;40.45;;;;;;;;;;5030242;28;20037;-65
2023/03/22 19:13:37;;;;;;;73.20;41.70;;;;;;;;;;5030285;28;20040;-65
2023/03/22 19:16:05;;;;;;;82.75;45.88;;;;;;;;;;5030719;28;20396;-64
2023/03/22 19:18:31;;;;;;;72.57;39.58;;;;;;;;;;5029929;28;20112;-66
2023/03/22 19:20:58;;;;;;;74.32;41.72;;;;;;;;;;5029371;28;20041;-72
2023/03/22 19:23:24;;;;;;;71.57;38.72;;;;;;;;;;5018812;28;20041;-65
2023/03/22 19:25:51;;;;;;;73.03;39.45;;;;;;;;;;5029360;28;20578;-66
2023/03/22 19:28:18;;;;;;;75.15;39.45;;;;;;;;;;5029781;28;20038;-62
2023/03/22 19:30:55;;;;;;;70.57;37.25;;;;;;;;;;5029788;28;20037;-69
2023/03/22 19:33:21;;;;;;;60.42;35.70;;;;;;;;;;5030310;28;20527;-73
2023/03/22 19:35:49;;;;;;;63.30;36.60;;;;;;;;;;5029914;28;20061;-69
2023/03/22 19:38:15;;;;;;;61.40;35.58;;;;;;;;;;5029562;28;20040;-64
2023/03/22 19:40:42;;;;;;;60.40;33.35;;;;;;;;;;5029616;28;20029;-64
2023/03/22 19:43:10;;;;;;;56.95;30.67;;;;;;;;;;5018670;28;20052;-67
2023/03/22 19:45:39;;;;;;;48.92;28.58;;;;;;;;;;5020754;28;20432;-66
2023/03/22 19:48:05;;;;;;;56.22;29.60;;;;;;;;;;5020587;28;20134;-65
2023/03/22 19:50:33;;;;;;;45.53;26.70;;;;;;;;;;5028880;28;20018;-68
2023/03/22 19:52:59;;;;;;;54.80;30.02;;;;;;;;;;5029045;28;20025;-65
2023/03/22 19:55:25;;;;;;;51.22;27.83;;;;;;;;;;5027806;28;20029;-64
2023/03/22 19:57:51;;;;;;;46.47;27.02;;;;;;;;;;5016631;28;20030;-64
2023/03/22 20:00:17;;;;;;;60.10;30.90;;;;;;;;;;5012910;28;20030;-69
2023/03/22 20:02:44;;;;;;;53.90;30.83;;;;;;;;;;5028395;28;20450;-67
2023/03/22 20:05:10;;;;;;;59.90;34.75;;;;;;;;;;5031296;28;20403;-75
2023/03/22 20:07:37;;;;;;;51.63;29.35;;;;;;;;;;5031902;28;20029;-64
2023/03/22 20:10:03;;;;;;;44.03;25.23;;;;;;;;;;5032038;28;20381;-71
2023/03/22 20:12:29;;;;;;;47.33;26.02;;;;;;;;;;5031688;28;20562;-66
2023/03/22 20:14:55;;;;;;;38.38;25.10;;;;;;;;;;5031630;28;20032;-65
2023/03/22 20:17:21;;;;;;;39.15;23.67;;;;;;;;;;5031948;28;20037;-65
2023/03/22 20:19:48;;;;;;;40.13;22.45;;;;;;;;;;5032237;28;20021;-65
2023/03/22 20:22:14;;;;;;;30.88;21.30;;;;;;;;;;5033087;28;20025;-64
2023/03/22 20:24:40;;;;;;;46.60;26.10;;;;;;;;;;5032241;28;20385;-65
2023/03/22 20:27:07;;;;;;;38.90;21.80;;;;;;;;;;5033178;28;20053;-65
2023/03/22 20:29:34;;;;;;;34.70;19.77;;;;;;;;;;5033001;28;20025;-65
2023/03/22 20:32:00;;;;;;;35.35;20.45;;;;;;;;;;5033194;28;20500;-65
2023/03/22 20:34:26;;;;;;;33.55;20.60;;;;;;;;;;5032838;28;20080;-66
2023/03/22 20:36:52;;;;;;;37.22;21.63;;;;;;;;;;5032500;28;20036;-64
2023/03/22 20:39:22;;;;;;;38.90;22.17;;;;;;;;;;5032396;28;20473;-66
2023/03/22 20:41:48;;;;;;;35.38;22.40;;;;;;;;;;5031655;28;20052;-68
2023/03/22 20:44:14;;;;;;;41.72;23.88;;;;;;;;;;5021370;28;20051;-65
2023/03/22 20:46:41;;;;;;;40.00;24.33;;;;;;;;;;5022527;28;20520;-64
2023/03/22 20:49:07;;;;;;;31.67;20.58;;;;;;;;;;5021452;28;20026;-67
2023/03/22 20:51:34;;;;;;;34.58;20.30;;;;;;;;;;5031564;28;20829;-66
2023/03/22 20:54:01;;;;;;;35.38;20.98;;;;;;;;;;5030992;28;20021;-65
2023/03/22 20:56:27;;;;;;;37.70;22.45;;;;;;;;;;5031121;28;20077;-66
2023/03/22 20:58:53;;;;;;;36.50;22.70;;;;;;;;;;5031283;28;20021;-66
2023/03/22 21:01:20;;;;;;;35.72;22.67;;;;;;;;;;5030160;28;20025;-65
2023/03/22 21:03:46;;;;;;;41.15;23.40;;;;;;;;;;5031224;28;20065;-65
2023/03/22 21:06:13;;;;;;;34.67;23.15;;;;;;;;;;5032234;28;20091;-66
2023/03/22 21:08:40;;;;;;;33.40;21.58;;;;;;;;;;5032308;28;20543;-68
2023/03/22 21:11:06;;;;;;;39.00;22.65;;;;;;;;;;5032745;28;20039;-65
2023/03/22 21:13:33;;;;;;;37.53;23.38;;;;;;;;;;5031073;28;20630;-66
2023/03/22 21:15:59;;;;;;;38.88;22.67;;;;;;;;;;5032344;28;20124;-65
2023/03/22 21:18:25;;;;;;;40.28;22.88;;;;;;;;;;5031699;28;20049;-62
2023/03/22 21:20:53;;;;;;;36.08;21.95;;;;;;;;;;5031646;28;20105;-65
2023/03/22 21:23:19;;;;;;;35.60;22.45;;;;;;;;;;5020662;28;20021;-69
2023/03/22 21:25:47;;;;;;;34.95;22.40;;;;;;;;;;5012419;28;20034;-71
2023/03/22 21:28:13;;;;;;;37.05;23.20;;;;;;;;;;5012248;28;20519;-65
2023/03/22 21:30:39;;;;;;;37.40;23.95;;;;;;;;;;5012404;28;20544;-65
2023/03/22 21:33:06;;;;;;;41.10;24.15;;;;;;;;;;5012312;28;20084;-66